Time;durP1;ratioP1;P1;durP2;ratioP2;P2;SDS_P1;SDS_P2;PMS_P1;PMS_P2;Temp;Humidity;BMP_temperature;BMP_pressure;BME280_temperature;BME280_humidity;BME280_pressure;Samples;Min_cycle;Max_cycle;Signal;HPM_P1;HPM_P2
2024/04/09 00:01:43;;;;;;;2.67;0.60;;;16.30;91.20;;;;;;5394996;26;20401;-73
2024/04/09 00:04:14;;;;;;;1.75;0.85;;;16.40;91.70;;;;;;5413305;26;20774;-72
2024/04/09 00:06:42;;;;;;;1.17;0.70;;;16.40;91.30;;;;;;5427167;26;20007;-73
2024/04/09 00:09:20;;;;;;;2.25;0.65;;;16.40;91.50;;;;;;5393487;26;20000;-74
2024/04/09 00:11:49;;;;;;;1.02;0.40;;;16.30;91.60;;;;;;5404981;26;20351;-75
2024/04/09 00:14:20;;;;;;;4.15;0.82;;;16.30;91.80;;;;;;5396148;26;23405;-73
2024/04/09 00:16:53;;;;;;;2.00;0.65;;;16.30;91.90;;;;;;5430419;26;19996;-72
2024/04/09 00:19:24;;;;;;;2.97;0.50;;;16.20;91.70;;;;;;5394272;26;20456;-72
2024/04/09 00:21:52;;;;;;;3.42;0.50;;;16.20;91.90;;;;;;5402031;26;20072;-73
2024/04/09 00:24:22;;;;;;;3.25;0.60;;;16.20;92.00;;;;;;5405270;26;20019;-73
2024/04/09 00:26:50;;;;;;;3.35;0.50;;;16.10;92.10;;;;;;5398259;26;20014;-72
2024/04/09 00:29:21;;;;;;;1.05;0.45;;;16.10;92.10;;;;;;5410064;26;20008;-74
2024/04/09 00:31:51;;;;;;;1.48;0.70;;;16.00;92.40;;;;;;5404743;26;20004;-75
2024/04/09 00:34:22;;;;;;;1.23;0.82;;;16.00;92.60;;;;;;5423613;26;20080;-74
2024/04/09 00:36:50;;;;;;;2.17;0.50;;;16.00;92.70;;;;;;5401269;26;20355;-75
2024/04/09 00:39:23;;;;;;;1.20;0.60;;;15.90;92.60;;;;;;5405710;26;20901;-74
2024/04/09 00:41:51;;;;;;;4.07;0.90;;;15.90;93.00;;;;;;5409405;26;20043;-75
2024/04/09 00:44:24;;;;;;;3.70;0.88;;;15.90;93.30;;;;;;5405137;26;19996;-75
2024/04/09 00:46:54;;;;;;;1.65;0.65;;;15.90;93.00;;;;;;5396436;26;20004;-75
2024/04/09 00:49:25;;;;;;;1.45;0.70;;;15.90;93.70;;;;;;5398835;26;20019;-74
2024/04/09 00:51:53;;;;;;;3.08;0.60;;;15.80;93.70;;;;;;5405570;26;20039;-74
2024/04/09 00:54:25;;;;;;;2.13;0.80;;;15.80;93.50;;;;;;5401378;26;20459;-75
2024/04/09 00:56:55;;;;;;;2.10;0.77;;;15.80;94.10;;;;;;5409074;26;20353;-74
2024/04/09 00:59:26;;;;;;;3.70;0.68;;;15.80;94.00;;;;;;5397811;26;20498;-74
2024/04/09 01:01:56;;;;;;;1.83;0.73;;;15.70;93.90;;;;;;5405490;26;20354;-74
2024/04/09 01:04:26;;;;;;;1.63;0.60;;;15.70;93.90;;;;;;5396140;26;20428;-74
2024/04/09 01:06:54;;;;;;;2.42;0.68;;;15.70;93.90;;;;;;5405660;26;20156;-74
2024/04/09 01:09:24;;;;;;;1.75;1.13;;;15.70;94.00;;;;;;5404274;26;20011;-75
2024/04/09 01:11:53;;;;;;;3.88;0.85;;;15.50;93.60;;;;;;5405979;26;20109;-74
2024/04/09 01:14:23;;;;;;;2.85;0.95;;;15.50;93.80;;;;;;5410566;26;20037;-75
2024/04/09 01:16:55;;;;;;;3.55;1.10;;;15.50;94.10;;;;;;5401391;26;20003;-74
2024/04/09 01:19:25;;;;;;;4.10;1.10;;;15.40;94.20;;;;;;5401802;26;20374;-74
2024/04/09 01:21:53;;;;;;;2.15;0.80;;;15.40;94.60;;;;;;5406255;26;20003;-74
2024/04/09 01:24:27;;;;;;;2.03;0.95;;;15.40;94.70;;;;;;5396177;26;20000;-74
2024/04/09 01:26:56;;;;;;;1.50;0.70;;;15.30;95.20;;;;;;5399802;26;20008;-74
2024/04/09 01:29:26;;;;;;;1.90;0.57;;;15.30;95.50;;;;;;5435533;26;19999;-74
2024/04/09 01:31:54;;;;;;;1.38;0.63;;;15.30;96.00;;;;;;5398926;26;21168;-75
2024/04/09 01:34:24;;;;;;;4.25;0.80;;;15.30;95.90;;;;;;5410035;26;20000;-75
2024/04/09 01:36:52;;;;;;;1.58;0.70;;;15.20;96.50;;;;;;5389199;26;20324;-75
2024/04/09 01:39:22;;;;;;;2.97;0.95;;;15.10;97.00;;;;;;5391784;26;20004;-75
2024/04/09 01:41:53;;;;;;;2.22;0.73;;;15.10;96.90;;;;;;5406989;26;20008;-76
2024/04/09 01:44:23;;;;;;;4.28;1.00;;;15.10;97.20;;;;;;5422892;26;20068;-77
2024/04/09 01:46:50;;;;;;;3.35;0.95;;;15.00;97.10;;;;;;5403590;26;19995;-77
2024/04/09 01:49:23;;;;;;;3.40;1.20;;;15.00;97.00;;;;;;5396902;26;20011;-77
2024/04/09 01:51:50;;;;;;;4.10;0.80;;;14.90;97.20;;;;;;5426006;26;20011;-76
2024/04/09 01:54:23;;;;;;;1.88;0.85;;;14.90;97.50;;;;;;5411950;26;20012;-76
2024/04/09 01:56:55;;;;;;;1.77;0.88;;;14.90;97.40;;;;;;5405538;26;20014;-75
2024/04/09 01:59:25;;;;;;;3.20;0.82;;;14.90;97.80;;;;;;5403336;26;20073;-76
2024/04/09 02:01:52;;;;;;;2.72;1.20;;;14.80;97.60;;;;;;5424674;26;20004;-77
2024/04/09 02:04:23;;;;;;;2.03;0.82;;;14.80;97.40;;;;;;5399297;26;20080;-76
2024/04/09 02:06:51;;;;;;;2.28;0.70;;;14.80;97.40;;;;;;5397348;26;20119;-76
2024/04/09 02:09:22;;;;;;;5.40;1.10;;;14.80;97.80;;;;;;5405376;26;20065;-76
2024/04/09 02:11:49;;;;;;;2.33;1.00;;;14.70;98.00;;;;;;5409237;26;20106;-76
2024/04/09 02:14:23;;;;;;;3.35;1.25;;;14.70;98.10;;;;;;5402913;26;20040;-76
2024/04/09 02:16:53;;;;;;;3.00;1.10;;;14.60;97.80;;;;;;5396742;26;20459;-77
2024/04/09 02:19:24;;;;;;;3.13;0.98;;;14.60;98.20;;;;;;5390884;26;20347;-77
2024/04/09 02:21:52;;;;;;;2.80;1.20;;;14.60;97.90;;;;;;5405897;26;20011;-76
2024/04/09 02:24:23;;;;;;;2.95;1.30;;;13.70;97.50;;;;;;5412268;26;20011;-77
2024/04/09 02:26:51;;;;;;;2.80;0.80;;;14.60;98.00;;;;;;5408024;26;20000;-77
2024/04/09 02:29:23;;;;;;;5.07;1.00;;;14.60;97.80;;;;;;5392245;26;20462;-76
2024/04/09 02:31:51;;;;;;;1.98;1.15;;;14.60;97.70;;;;;;5404828;26;20014;-76
2024/04/09 02:34:24;;;;;;;2.80;1.30;;;14.40;97.80;;;;;;5400303;26;20008;-77
2024/04/09 02:36:52;;;;;;;4.72;1.30;;;14.40;98.00;;;;;;5394743;26;20004;-76
2024/04/09 02:39:22;;;;;;;2.40;1.35;;;14.50;98.00;;;;;;5395938;26;20076;-76
2024/04/09 02:41:50;;;;;;;2.30;0.93;;;14.50;97.90;;;;;;5399297;26;19995;-76
2024/04/09 02:44:22;;;;;;;3.22;1.42;;;14.50;97.90;;;;;;5392450;26;20011;-76
2024/04/09 02:46:50;;;;;;;6.07;0.90;;;14.40;98.20;;;;;;5401126;26;20004;-77
2024/04/09 02:49:20;;;;;;;2.30;1.10;;;14.40;98.10;;;;;;5399394;26;20004;-76
2024/04/09 02:51:48;;;;;;;2.65;1.00;;;14.40;98.50;;;;;;5393129;26;20000;-75
2024/04/09 02:54:18;;;;;;;3.30;1.23;;;14.30;98.20;;;;;;5393568;26;20011;-74
2024/04/09 02:56:46;;;;;;;3.30;1.00;;;14.30;97.90;;;;;;5400706;26;20045;-74
2024/04/09 02:59:17;;;;;;;3.10;0.82;;;14.20;98.00;;;;;;5404783;26;20000;-74
2024/04/09 03:01:48;;;;;;;5.47;0.98;;;14.20;98.20;;;;;;5388069;26;20655;-74
2024/04/09 03:04:18;;;;;;;2.92;1.10;;;14.20;98.30;;;;;;5430546;26;20032;-75
2024/04/09 03:06:46;;;;;;;5.47;1.25;;;14.20;98.30;;;;;;5401416;26;20076;-74
2024/04/09 03:09:17;;;;;;;4.72;1.17;;;14.20;98.70;;;;;;5401370;26;20008;-74
2024/04/09 03:11:44;;;;;;;3.17;0.90;;;14.10;99.10;;;;;;5397885;26;20359;-75
2024/04/09 03:14:15;;;;;;;3.13;1.00;;;14.20;99.40;;;;;;5411502;26;20004;-74
2024/04/09 03:16:42;;;;;;;5.10;1.50;;;14.20;99.30;;;;;;5404165;26;20470;-74
2024/04/09 03:19:17;;;;;;;6.28;1.50;;;14.10;99.10;;;;;;5400873;26;20019;-75
2024/04/09 03:21:44;;;;;;;4.18;1.90;;;14.10;99.40;;;;;;5407080;26;20000;-76
2024/04/09 03:24:15;;;;;;;2.65;1.13;;;14.10;99.30;;;;;;5406695;26;19999;-74
2024/04/09 03:26:43;;;;;;;4.65;1.33;;;14.00;99.20;;;;;;5407222;26;20037;-74
2024/04/09 03:29:13;;;;;;;2.72;1.00;;;14.00;99.50;;;;;;5406445;26;20354;-74
2024/04/09 03:31:41;;;;;;;4.68;1.17;;;14.00;99.40;;;;;;5393796;26;20054;-74
2024/04/09 03:34:11;;;;;;;3.85;1.15;;;14.00;99.40;;;;;;5405304;26;20018;-74
2024/04/09 03:36:41;;;;;;;3.88;1.45;;;13.90;99.70;;;;;;5430085;26;20076;-74
2024/04/09 03:39:12;;;;;;;3.03;0.90;;;13.90;99.70;;;;;;5396005;26;20332;-75
2024/04/09 03:41:42;;;;;;;3.30;1.20;;;13.90;99.90;;;;;;5400032;26;20443;-75
2024/04/09 03:44:13;;;;;;;1.23;1.05;;;13.90;99.90;;;;;;5430238;26;20000;-74
2024/04/09 03:46:41;;;;;;;5.03;1.30;;;13.80;99.90;;;;;;5403326;26;20000;-75
2024/04/09 03:49:11;;;;;;;3.47;1.23;;;13.80;99.90;;;;;;5388856;26;20336;-74
2024/04/09 03:51:41;;;;;;;2.88;1.48;;;13.80;99.90;;;;;;5399278;26;20007;-75
2024/04/09 03:54:15;;;;;;;1.98;1.20;;;13.80;99.90;;;;;;5398265;26;20004;-75
2024/04/09 03:56:43;;;;;;;2.83;1.17;;;13.80;99.90;;;;;;5399232;26;20004;-75
2024/04/09 03:59:13;;;;;;;6.78;1.83;;;13.80;99.90;;;;;;5406874;26;20023;-74
2024/04/09 04:01:41;;;;;;;4.47;1.23;;;13.80;99.90;;;;;;5404465;26;20011;-77
2024/04/09 04:04:13;;;;;;;2.72;1.27;;;13.70;99.90;;;;;;5422228;26;19999;-79
2024/04/09 04:06:43;;;;;;;4.40;1.17;;;13.70;99.90;;;;;;5408627;26;20003;-77
2024/04/09 04:09:14;;;;;;;4.22;1.95;;;13.60;99.90;;;;;;5407514;26;20069;-77
2024/04/09 04:11:42;;;;;;;3.47;1.60;;;13.70;99.90;;;;;;5398045;26;20032;-78
2024/04/09 04:14:12;;;;;;;4.85;1.52;;;13.50;99.90;;;;;;5399090;26;20021;-78
2024/04/09 04:16:40;;;;;;;5.97;1.48;;;13.60;99.90;;;;;;5437115;26;20008;-79
2024/04/09 04:19:10;;;;;;;9.07;2.00;;;13.60;99.90;;;;;;5407121;26;20000;-78
2024/04/09 04:21:38;;;;;;;5.13;1.08;;;13.70;99.90;;;;;;5410910;26;20008;-77
2024/04/09 04:24:12;;;;;;;4.78;1.85;;;13.70;99.90;;;;;;5396643;26;20000;-79
2024/04/09 04:26:39;;;;;;;6.38;1.48;;;13.70;99.90;;;;;;5405954;26;20032;-77
2024/04/09 04:29:10;;;;;;;5.07;1.17;;;13.60;99.90;;;;;;5407533;26;20022;-78
2024/04/09 04:31:38;;;;;;;4.35;1.38;;;13.70;99.90;;;;;;5404098;26;20465;-78
2024/04/09 04:34:09;;;;;;;5.55;2.60;;;13.70;99.90;;;;;;5437476;26;20015;-78
2024/04/09 04:36:37;;;;;;;6.80;2.40;;;13.60;99.90;;;;;;5404133;26;20006;-78
2024/04/09 04:39:07;;;;;;;5.32;1.70;;;13.70;99.90;;;;;;5424899;26;20007;-80
2024/04/09 04:41:37;;;;;;;9.15;1.65;;;13.70;99.90;;;;;;5422310;26;20000;-80
2024/04/09 04:44:08;;;;;;;3.55;1.38;;;13.70;99.90;;;;;;5420202;26;19996;-80
2024/04/09 04:46:35;;;;;;;5.97;1.60;;;13.80;99.90;;;;;;5418442;26;19999;-80
2024/04/09 04:49:06;;;;;;;7.72;1.58;;;13.80;99.90;;;;;;5424529;26;19992;-79
2024/04/09 04:51:34;;;;;;;4.97;1.52;;;13.80;99.90;;;;;;5414598;26;20383;-80
2024/04/09 04:54:04;;;;;;;6.90;1.52;;;13.90;99.90;;;;;;5420798;26;20459;-79
2024/04/09 04:56:32;;;;;;;8.13;1.42;;;13.90;99.90;;;;;;5417509;26;20040;-80
2024/04/09 04:59:05;;;;;;;2.50;0.88;;;13.90;99.90;;;;;;5414635;26;20000;-75
2024/04/09 05:01:32;;;;;;;5.13;1.35;;;14.00;99.90;;;;;;5419075;26;20010;-80
2024/04/09 05:04:03;;;;;;;3.55;1.00;;;14.00;99.90;;;;;;5424466;26;20000;-78
2024/04/09 05:06:30;;;;;;;4.32;1.00;;;14.10;99.90;;;;;;5418892;26;20556;-79
2024/04/09 05:09:02;;;;;;;3.35;1.60;;;14.10;99.90;;;;;;5422219;26;20019;-79
2024/04/09 05:11:30;;;;;;;7.40;2.38;;;14.10;99.90;;;;;;5411606;26;20000;-76
2024/04/09 05:14:00;;;;;;;5.53;1.73;;;14.00;99.90;;;;;;5393950;26;20016;-77
2024/04/09 05:16:30;;;;;;;7.03;1.38;;;14.10;99.90;;;;;;5402748;26;20339;-77
2024/04/09 05:19:00;;;;;;;2.45;1.23;;;14.10;99.90;;;;;;5397598;26;20183;-77
2024/04/09 05:21:31;;;;;;;8.68;1.30;;;14.20;99.90;;;;;;5398762;26;20000;-76
2024/04/09 05:23:59;;;;;;;4.82;1.38;;;14.20;99.90;;;;;;5398227;26;20012;-76
2024/04/09 05:26:29;;;;;;;4.68;1.38;;;14.20;99.90;;;;;;5406978;26;20342;-77
2024/04/09 05:28:57;;;;;;;9.93;1.63;;;14.20;99.90;;;;;;5408545;26;20000;-77
2024/04/09 05:31:27;;;;;;;10.98;2.03;;;14.30;99.90;;;;;;5409105;26;20003;-76
2024/04/09 05:33:57;;;;;;;5.68;1.80;;;14.30;99.90;;;;;;5405313;26;20018;-77
2024/04/09 05:36:31;;;;;;;4.80;2.20;;;14.30;99.90;;;;;;5398718;26;20014;-77
2024/04/09 05:38:59;;;;;;;3.97;1.67;;;14.50;99.90;;;;;;5404541;26;20027;-77
2024/04/09 05:41:30;;;;;;;5.50;2.20;;;14.40;99.90;;;;;;5404587;26;20015;-77
2024/04/09 05:43:57;;;;;;;12.43;1.90;;;14.50;99.90;;;;;;5397117;26;20084;-77
2024/04/09 05:46:28;;;;;;;5.68;2.15;;;14.60;99.90;;;;;;5408174;26;20043;-77
2024/04/09 05:48:58;;;;;;;4.47;1.60;;;14.70;99.90;;;;;;5402901;26;20043;-76
2024/04/09 05:51:28;;;;;;;8.80;1.33;;;14.70;99.90;;;;;;5399998;26;20089;-76
2024/04/09 05:53:57;;;;;;;6.32;1.10;;;14.80;99.90;;;;;;5393325;26;20010;-77
2024/04/09 05:56:27;;;;;;;5.55;1.50;;;14.90;99.90;;;;;;5393757;26;20486;-77
2024/04/09 05:58:55;;;;;;;5.70;1.23;;;14.90;99.90;;;;;;5401710;26;20011;-77
2024/04/09 06:01:26;;;;;;;3.47;1.00;;;14.90;99.90;;;;;;5398282;26;20014;-77
2024/04/09 06:03:54;;;;;;;4.70;1.13;;;15.00;99.90;;;;;;5398522;26;20010;-77
2024/04/09 06:06:27;;;;;;;2.15;0.80;;;15.00;99.90;;;;;;5397177;26;20001;-77
2024/04/09 06:08:54;;;;;;;3.10;0.75;;;15.10;99.90;;;;;;5399208;26;20024;-77
2024/04/09 06:11:24;;;;;;;4.38;1.08;;;15.20;99.90;;;;;;5389378;26;20335;-77
2024/04/09 06:13:52;;;;;;;5.82;0.80;;;15.20;99.90;;;;;;5397984;26;20040;-77
2024/04/09 06:16:23;;;;;;;3.13;0.90;;;15.30;99.90;;;;;;5387515;26;20783;-77
2024/04/09 06:18:51;;;;;;;3.20;0.80;;;15.40;99.90;;;;;;5399066;26;20089;-77
2024/04/09 06:21:21;;;;;;;3.33;0.85;;;15.50;99.90;;;;;;5393724;26;20545;-74
2024/04/09 06:23:51;;;;;;;5.18;0.80;;;15.50;99.90;;;;;;5419548;26;20001;-73
2024/04/09 06:26:22;;;;;;;2.72;0.88;;;15.60;99.90;;;;;;5392203;26;20004;-73
2024/04/09 06:28:51;;;;;;;2.10;0.80;;;15.70;99.90;;;;;;5385011;26;20074;-73
2024/04/09 06:31:21;;;;;;;2.05;0.80;;;15.90;99.90;;;;;;5429610;26;20038;-72
2024/04/09 06:33:50;;;;;;;3.33;0.70;;;16.10;99.90;;;;;;5404200;26;20007;-72
2024/04/09 06:36:21;;;;;;;1.67;0.73;;;16.20;99.80;;;;;;5390567;26;20625;-73
2024/04/09 06:38:56;;;;;;;5.22;0.60;;;16.30;99.70;;;;;;5406770;26;20015;-75
2024/04/09 06:41:27;;;;;;;4.05;1.02;;;16.40;98.70;;;;;;5407746;26;20008;-73
2024/04/09 06:43:54;;;;;;;3.17;0.60;;;16.40;98.70;;;;;;5399441;26;20614;-75
2024/04/09 06:46:25;;;;;;;1.55;0.52;;;16.40;98.20;;;;;;5409963;26;20000;-74
2024/04/09 06:48:55;;;;;;;3.25;0.47;;;16.50;98.00;;;;;;5399495;26;20459;-73
2024/04/09 06:51:23;;;;;;;3.05;0.43;;;16.60;97.80;;;;;;5399794;26;20346;-74
2024/04/09 06:53:53;;;;;;;3.72;0.40;;;16.80;97.40;;;;;;5405896;26;20007;-74
2024/04/09 06:56:24;;;;;;;2.35;0.55;;;17.00;96.40;;;;;;5383709;26;20631;-75
2024/04/09 06:58:54;;;;;;;3.28;0.55;;;17.10;95.90;;;;;;5394160;26;20000;-75
2024/04/09 07:01:22;;;;;;;1.80;0.50;;;17.30;96.30;;;;;;5392438;26;19997;-74
2024/04/09 07:03:52;;;;;;;1.42;0.40;;;17.40;95.60;;;;;;5399945;26;20461;-74
2024/04/09 07:06:20;;;;;;;1.25;0.60;;;17.50;95.20;;;;;;5401047;26;20012;-75
2024/04/09 07:08:50;;;;;;;0.98;0.40;;;17.70;94.80;;;;;;5406187;26;20075;-77
2024/04/09 07:11:20;;;;;;;2.10;0.50;;;17.80;94.00;;;;;;5394407;26;20015;-75
2024/04/09 07:13:53;;;;;;;6.82;1.75;;;18.00;94.50;;;;;;5403432;26;20455;-74
2024/04/09 07:16:21;;;;;;;1.27;0.60;;;18.10;93.80;;;;;;5403072;26;20008;-73
2024/04/09 07:18:51;;;;;;;1.42;0.70;;;18.30;94.00;;;;;;5403245;26;20054;-73
2024/04/09 07:21:20;;;;;;;1.48;0.65;;;18.40;93.60;;;;;;5401313;26;20442;-74
2024/04/09 07:23:50;;;;;;;2.05;0.40;;;18.50;92.60;;;;;;5402249;26;20447;-73
2024/04/09 07:26:19;;;;;;;1.15;0.50;;;18.70;92.60;;;;;;5410016;26;20011;-74
2024/04/09 07:28:52;;;;;;;2.00;0.50;;;18.70;91.70;;;;;;5426806;26;20000;-75
2024/04/09 07:31:21;;;;;;;1.27;0.45;;;18.90;92.10;;;;;;5425188;26;20455;-82
2024/04/09 07:33:52;;;;;;;1.48;0.60;;;19.00;91.90;;;;;;5406389;26;20051;-78
2024/04/09 07:36:23;;;;;;;5.25;0.60;;;19.10;91.50;;;;;;5398224;26;20004;-77
2024/04/09 07:38:52;;;;;;;2.20;0.50;;;19.30;91.50;;;;;;5403109;26;20015;-80
2024/04/09 07:41:23;;;;;;;6.50;0.80;;;19.30;90.90;;;;;;5421099;26;20004;-77
2024/04/09 07:43:55;;;;;;;2.17;0.50;;;19.50;91.00;;;;;;5407717;26;20015;-84
2024/04/09 07:46:26;;;;;;;1.17;0.30;;;19.40;91.40;;;;;;5398113;26;20014;-77
2024/04/09 07:48:55;;;;;;;8.23;1.05;;;19.50;90.30;;;;;;5406734;26;20015;-77
2024/04/09 07:51:25;;;;;;;4.38;0.63;;;19.50;90.40;;;;;;5399815;26;20018;-78
2024/04/09 07:53:53;;;;;;;5.47;0.95;;;19.70;90.10;;;;;;5393815;26;20536;-78
2024/04/09 07:56:23;;;;;;;1.27;0.50;;;19.80;90.20;;;;;;5403682;26;20028;-78
2024/04/09 07:58:53;;;;;;;5.15;0.47;;;19.90;89.90;;;;;;5422513;26;20064;-77
2024/04/09 08:01:24;;;;;;;0.90;0.30;;;20.00;88.30;;;;;;5408388;26;20333;-79
2024/04/09 08:03:51;;;;;;;3.58;0.50;;;20.10;87.90;;;;;;5406954;26;20404;-77
2024/04/09 08:06:24;;;;;;;1.58;0.45;;;20.20;87.00;;;;;;5411512;26;19999;-78
2024/04/09 08:08:52;;;;;;;1.77;0.32;;;20.40;87.40;;;;;;5415253;26;20067;-82
2024/04/09 08:11:23;;;;;;;1.63;0.30;;;20.50;87.20;;;;;;5408892;26;20020;-78
2024/04/09 08:13:53;;;;;;;4.97;0.50;;;20.50;86.60;;;;;;5401011;26;20011;-78
2024/04/09 08:16:23;;;;;;;1.95;0.30;;;20.50;84.90;;;;;;5398850;26;20011;-77
2024/04/09 08:18:51;;;;;;;2.67;0.40;;;20.60;84.90;;;;;;5400162;26;20660;-78
2024/04/09 08:21:22;;;;;;;4.43;0.63;;;20.80;85.60;;;;;;5398602;26;20001;-78
2024/04/09 08:23:49;;;;;;;3.97;0.30;;;20.90;85.30;;;;;;5400719;26;20454;-78
2024/04/09 08:26:23;;;;;;;1.58;0.50;;;21.00;84.20;;;;;;5403162;26;20000;-77
2024/04/09 08:28:54;;;;;;;4.55;0.40;;;21.10;84.90;;;;;;5404747;26;19997;-77
2024/04/09 08:31:31;;;;;;;2.17;0.60;;;21.30;83.40;;;;;;5424542;26;20081;-77
2024/04/09 08:34:03;;;;;;;1.60;0.32;;;21.40;84.80;;;;;;5395149;26;20000;-77
2024/04/09 08:36:34;;;;;;;3.70;0.50;;;21.60;83.60;;;;;;5398816;26;20010;-80
2024/04/09 08:39:03;;;;;;;4.60;0.50;;;21.70;82.00;;;;;;5404426;26;20096;-78
2024/04/09 08:41:34;;;;;;;2.03;0.40;;;21.70;82.70;;;;;;5399025;26;20007;-77
2024/04/09 08:44:07;;;;;;;2.08;0.30;;;21.70;81.50;;;;;;5406068;26;19999;-78
2024/04/09 08:46:40;;;;;;;3.20;0.30;;;21.70;81.50;;;;;;5403863;26;20011;-81
2024/04/09 08:49:09;;;;;;;3.70;0.35;;;21.70;79.60;;;;;;5400439;26;20012;-81
2024/04/09 08:51:42;;;;;;;1.13;0.40;;;21.70;80.50;;;;;;5413647;26;19999;-77
2024/04/09 08:54:09;;;;;;;1.38;0.40;;;21.70;78.60;;;;;;5399780;26;19999;-79
2024/04/09 08:56:40;;;;;;;1.88;0.22;;;22.00;80.50;;;;;;5406721;26;20356;-79
2024/04/09 08:59:10;;;;;;;0.75;0.22;;;22.00;79.50;;;;;;5403478;26;20348;-78
2024/04/09 09:01:41;;;;;;;1.35;0.30;;;22.20;78.60;;;;;;5400645;26;20015;-77
2024/04/09 09:04:11;;;;;;;4.45;0.43;;;22.40;78.00;;;;;;5395407;26;20531;-77
2024/04/09 09:06:47;;;;;;;1.95;0.30;;;22.50;77.90;;;;;;5400928;26;20286;-77
2024/04/09 09:09:22;;;;;;;2.00;0.30;;;22.80;78.20;;;;;;5407730;26;20035;-76
2024/04/09 09:11:53;;;;;;;1.98;0.40;;;22.90;76.70;;;;;;5398567;26;20007;-76
2024/04/09 09:14:23;;;;;;;6.25;0.30;;;22.90;76.70;;;;;;5407193;26;20004;-81
2024/04/09 09:16:53;;;;;;;0.93;0.20;;;23.00;77.50;;;;;;5396516;26;20479;-78
2024/04/09 09:19:22;;;;;;;4.07;0.30;;;23.00;76.30;;;;;;5397207;26;20383;-77
2024/04/09 09:21:53;;;;;;;1.92;0.30;;;23.10;75.80;;;;;;5391908;26;20410;-79
2024/04/09 09:24:20;;;;;;;1.33;0.20;;;23.10;75.20;;;;;;5401399;26;20003;-77
2024/04/09 09:27:00;;;;;;;1.00;0.30;;;23.30;75.30;;;;;;5401483;26;20338;-79
2024/04/09 09:29:32;;;;;;;1.25;0.43;;;23.30;74.90;;;;;;5404656;26;20021;-77
2024/04/09 09:32:04;;;;;;;2.17;0.45;;;23.40;73.90;;;;;;5418051;26;20014;-79
2024/04/09 09:34:37;;;;;;;2.20;0.43;;;23.50;73.50;;;;;;5406679;26;20046;-76
2024/04/09 09:37:10;;;;;;;1.38;0.40;;;23.60;74.70;;;;;;5401557;26;20003;-76
2024/04/09 09:39:39;;;;;;;2.85;0.30;;;23.60;74.00;;;;;;5406795;26;20003;-80
2024/04/09 09:42:14;;;;;;;1.92;0.70;;;23.80;74.40;;;;;;5404708;26;20000;-80
2024/04/09 09:44:45;;;;;;;3.75;0.30;;;23.60;71.80;;;;;;5405978;26;20570;-77
2024/04/09 09:47:18;;;;;;;4.35;0.77;;;23.60;71.30;;;;;;5401311;26;20008;-77
2024/04/09 09:49:47;;;;;;;1.60;0.50;;;23.80;72.00;;;;;;5406900;26;20454;-81
2024/04/09 09:52:25;;;;;;;3.42;1.13;;;23.90;72.20;;;;;;5408187;26;20336;-77
2024/04/09 09:54:53;;;;;;;2.05;0.30;;;23.90;72.10;;;;;;5405781;26;20015;-78
2024/04/09 09:57:34;;;;;;;2.03;0.40;;;23.80;71.80;;;;;;5398235;26;20064;-79
2024/04/09 10:00:09;;;;;;;2.13;0.50;;;25.00;72.90;;;;;;5434404;26;20067;-77
2024/04/09 10:02:44;;;;;;;3.00;0.50;;;23.90;71.50;;;;;;5438480;26;20471;-79
2024/04/09 10:05:15;;;;;;;2.28;0.43;;;24.00;71.60;;;;;;5398892;26;20023;-79
2024/04/09 10:07:49;;;;;;;5.80;0.52;;;23.90;70.90;;;;;;5428826;26;20055;-77
2024/04/09 10:10:24;;;;;;;3.25;0.90;;;23.90;72.30;;;;;;5401354;26;20081;-77
2024/04/09 10:12:58;;;;;;;2.00;0.40;;;24.10;71.70;;;;;;5411470;26;20043;-78
2024/04/09 10:15:30;;;;;;;2.55;0.90;;;24.30;71.90;;;;;;5401218;26;20008;-77
2024/04/09 10:18:04;;;;;;;1.17;0.32;;;24.40;73.60;;;;;;5427794;26;20000;-78
2024/04/09 10:20:35;;;;;;;4.20;0.70;;;24.50;71.60;;;;;;5384490;26;20010;-79
2024/04/09 10:23:07;;;;;;;3.30;0.50;;;24.60;70.90;;;;;;5407405;26;19999;-79
2024/04/09 10:25:40;;;;;;;3.80;0.70;;;24.80;69.80;;;;;;5405089;26;20000;-77
2024/04/09 10:28:13;;;;;;;1.75;0.70;;;25.00;70.50;;;;;;5399808;26;20049;-77
2024/04/09 10:30:46;;;;;;;3.17;0.50;;;24.90;69.50;;;;;;5399735;26;20026;-80
2024/04/09 10:33:17;;;;;;;3.03;0.60;;;24.70;69.50;;;;;;5396011;26;20009;-77
2024/04/09 10:35:46;;;;;;;7.38;1.05;;;24.60;70.70;;;;;;5384287;26;20018;-78
2024/04/09 10:38:17;;;;;;;1.27;0.35;;;24.80;69.60;;;;;;5399013;26;20004;-79
2024/04/09 10:40:45;;;;;;;6.97;1.02;;;24.90;70.20;;;;;;5400114;26;20470;-79
2024/04/09 10:43:18;;;;;;;2.50;0.60;;;25.00;68.90;;;;;;5401991;26;20021;-78
2024/04/09 10:45:48;;;;;;;3.22;0.90;;;25.10;69.20;;;;;;5386249;26;20474;-77
2024/04/09 10:48:37;;;;;;;1.38;0.47;;;25.30;69.10;;;;;;5393440;26;20022;-78
2024/04/09 10:51:06;;;;;;;0.65;0.35;;;25.40;67.20;;;;;;5399039;26;20466;-81
2024/04/09 10:53:37;;;;;;;5.15;0.60;;;25.40;67.80;;;;;;5391100;26;20032;-79
2024/04/09 10:56:05;;;;;;;3.92;0.38;;;25.30;68.40;;;;;;5399787;26;20020;-79
2024/04/09 10:58:40;;;;;;;3.05;0.45;;;25.40;68.40;;;;;;5399599;26;20080;-80
2024/04/09 11:01:14;;;;;;;2.28;0.43;;;25.30;67.90;;;;;;5396579;26;20076;-80
2024/04/09 11:03:46;;;;;;;2.95;0.90;;;25.40;69.30;;;;;;5400384;26;20007;-81
2024/04/09 11:06:14;;;;;;;1.48;0.25;;;25.40;68.50;;;;;;5418623;26;19999;-80
2024/04/09 11:08:45;;;;;;;4.57;0.40;;;25.50;68.90;;;;;;5402005;26;20011;-78
2024/04/09 11:11:13;;;;;;;4.18;0.60;;;25.60;68.30;;;;;;5392196;26;20011;-84
2024/04/09 11:13:44;;;;;;;3.25;0.50;;;25.60;69.20;;;;;;5401488;26;19996;-81
2024/04/09 11:16:19;;;;;;;6.32;0.73;;;25.70;68.70;;;;;;5396142;26;20000;-79
2024/04/09 11:19:00;;;;;;;2.03;0.52;;;25.60;68.40;;;;;;5417729;26;20374;-79
2024/04/09 11:21:30;;;;;;;4.15;0.52;;;25.50;67.70;;;;;;5401658;26;20077;-85
2024/04/09 11:24:01;;;;;;;3.42;0.65;;;25.60;68.40;;;;;;5384373;26;20054;-81
2024/04/09 11:26:29;;;;;;;6.90;0.68;;;25.50;68.20;;;;;;5425439;26;19997;-82
2024/04/09 11:28:59;;;;;;;1.40;0.50;;;25.50;68.20;;;;;;5406344;26;20011;-80
2024/04/09 11:31:30;;;;;;;2.85;0.40;;;25.70;69.10;;;;;;5406670;26;20004;-82
2024/04/09 11:34:01;;;;;;;2.05;0.60;;;26.00;68.60;;;;;;5458566;26;20045;-83
2024/04/09 11:36:30;;;;;;;3.45;0.57;;;26.10;65.70;;;;;;5403324;26;20008;-79
2024/04/09 11:39:02;;;;;;;0.93;0.63;;;26.20;64.30;;;;;;5412731;26;20332;-80
2024/04/09 11:41:29;;;;;;;1.92;0.65;;;26.20;63.10;;;;;;5400798;26;20011;-85
2024/04/09 11:44:01;;;;;;;2.90;0.30;;;26.20;64.00;;;;;;5399866;26;20604;-79
2024/04/09 11:46:31;;;;;;;3.50;0.50;;;26.30;64.70;;;;;;5401601;26;20339;-82
2024/04/09 11:49:02;;;;;;;2.42;0.63;;;26.50;63.50;;;;;;5424036;26;20004;-78
2024/04/09 11:51:30;;;;;;;5.30;0.85;;;26.30;60.90;;;;;;5434693;26;20004;-82
2024/04/09 11:54:01;;;;;;;2.95;0.50;;;26.30;61.40;;;;;;5397094;26;20452;-80
2024/04/09 11:56:32;;;;;;;4.28;0.52;;;26.30;60.90;;;;;;5391231;26;20001;-84
2024/04/09 11:59:02;;;;;;;3.03;0.55;;;26.50;62.90;;;;;;5400565;26;20496;-85
2024/04/09 12:01:40;;;;;;;2.33;0.55;;;26.50;63.00;;;;;;5402391;26;20023;-87
2024/04/09 12:04:13;;;;;;;8.15;0.50;;;26.50;62.10;;;;;;5401205;26;20027;-79
2024/04/09 12:06:41;;;;;;;6.00;0.68;;;26.40;62.60;;;;;;5386204;26;20005;-83
2024/04/09 12:09:12;;;;;;;1.45;0.40;;;26.20;62.20;;;;;;5401827;26;20076;-81
2024/04/09 12:11:39;;;;;;;2.72;0.40;;;26.10;62.40;;;;;;5397061;26;20008;-79
2024/04/09 12:14:10;;;;;;;2.60;0.60;;;26.10;62.60;;;;;;5395401;26;20642;-80
2024/04/09 12:16:43;;;;;;;2.15;0.50;;;26.10;62.70;;;;;;5389020;26;20019;-79
2024/04/09 12:19:14;;;;;;;2.28;0.43;;;26.10;62.80;;;;;;5430705;26;20000;-79
2024/04/09 12:21:42;;;;;;;2.53;0.90;;;26.20;63.70;;;;;;5394345;26;19999;-79
2024/04/09 12:24:14;;;;;;;2.42;0.40;;;26.30;63.30;;;;;;5396444;26;20000;-76
2024/04/09 12:26:42;;;;;;;1.45;0.40;;;26.30;63.20;;;;;;5404923;26;20018;-78
2024/04/09 12:29:12;;;;;;;2.83;0.30;;;26.30;63.40;;;;;;5405551;26;20019;-76
2024/04/09 12:31:43;;;;;;;0.73;0.30;;;26.30;62.70;;;;;;5398572;26;20082;-78
2024/04/09 12:34:13;;;;;;;2.42;0.35;;;26.30;62.60;;;;;;5390206;26;20081;-81
2024/04/09 12:36:41;;;;;;;1.30;0.35;;;26.40;63.60;;;;;;5394578;26;20011;-83
2024/04/09 12:39:12;;;;;;;2.50;0.82;;;26.30;64.00;;;;;;5394929;26;20080;-80
2024/04/09 12:41:42;;;;;;;2.42;0.38;;;26.40;63.30;;;;;;5404393;26;20004;-77
2024/04/09 12:44:10;;;;;;;4.93;0.70;;;26.50;63.30;;;;;;5431709;26;20474;-81
2024/04/09 12:46:41;;;;;;;2.65;0.65;;;26.40;62.90;;;;;;5393343;26;20000;-78
2024/04/09 12:49:11;;;;;;;1.70;0.40;;;26.40;63.10;;;;;;5404820;26;20004;-77
2024/04/09 12:52:01;;;;;;;2.75;0.63;;;26.40;63.30;;;;;;5400581;26;20060;-78
2024/04/09 12:54:29;;;;;;;1.58;0.40;;;26.30;63.20;;;;;;5423543;26;20073;-78
2024/04/09 12:57:00;;;;;;;5.72;0.60;;;26.40;64.40;;;;;;5401521;26;20000;-77
2024/04/09 12:59:33;;;;;;;0.73;0.30;;;26.40;64.10;;;;;;5393929;26;20024;-78
2024/04/09 13:02:23;;;;;;;2.05;0.40;;;26.30;63.80;;;;;;5402373;26;20830;-85
2024/04/09 13:04:54;;;;;;;4.85;0.40;;;26.30;63.30;;;;;;5407928;26;20028;-85